createdAt,value
2018-09-10T00:00:52.235Z,78.25
2018-09-10T00:03:21.197Z,78.30
2018-09-10T00:05:50.150Z,78.34
2018-09-10T00:08:19.092Z,78.29
2018-09-10T00:10:48.551Z,78.22
2018-09-10T00:13:19.724Z,78.63
2018-09-10T00:15:48.644Z,78.39
2018-09-10T00:18:17.732Z,78.50
2018-09-10T00:20:46.628Z,78.44
2018-09-10T00:23:15.652Z,78.30
2018-09-10T00:25:46.747Z,78.35
2018-09-10T00:28:15.858Z,78.26
2018-09-10T00:30:44.900Z,77.91
2018-09-10T00:33:13.778Z,77.92
2018-09-10T00:35:42.713Z,77.77
2018-09-10T00:38:12.392Z,77.95
2018-09-10T00:40:41.428Z,77.87
2018-09-10T00:43:11.322Z,78.10
2018-09-10T00:45:40.360Z,78.14
2018-09-10T00:48:09.607Z,78.27
2018-09-10T00:50:40.678Z,78.62
2018-09-10T00:53:09.707Z,78.11
2018-09-10T00:55:38.804Z,78.09
2018-09-10T00:58:07.864Z,78.08
2018-09-10T01:00:36.796Z,77.93
2018-09-10T01:03:05.619Z,78.19
2018-09-10T01:05:34.561Z,78.11
2018-09-10T01:08:03.552Z,78.16
2018-09-10T01:10:32.388Z,78.36
2018-09-10T01:13:01.264Z,78.27
2018-09-10T01:15:30.044Z,78.07
2018-09-10T01:17:59.127Z,78.14
2018-09-10T01:20:28.002Z,78.19
2018-09-10T01:22:56.832Z,77.86
2018-09-10T01:25:25.824Z,78.06
2018-09-10T01:27:54.830Z,77.90
2018-09-10T01:30:23.662Z,77.75
2018-09-10T01:32:52.639Z,77.92
2018-09-10T01:35:21.500Z,77.97
2018-09-10T01:37:52.415Z,78.06
2018-09-10T01:40:21.272Z,77.68
2018-09-10T01:42:50.263Z,77.66
2018-09-10T01:45:19.119Z,77.75
2018-09-10T01:47:48.010Z,77.69
2018-09-10T01:50:16.820Z,77.61
2018-09-10T01:52:45.749Z,76.97
2018-09-10T01:55:14.584Z,77.24
2018-09-10T01:57:43.521Z,77.36
2018-09-10T02:00:12.587Z,76.86
2018-09-10T02:02:41.504Z,77.09
2018-09-10T02:05:10.474Z,77.13
2018-09-10T02:07:39.359Z,77.02
2018-09-10T02:10:08.344Z,77.04
2018-09-10T02:12:37.202Z,77.35
2018-09-10T02:15:06.173Z,77.27
2018-09-10T02:17:35.073Z,77.30
2018-09-10T02:20:04.062Z,77.20
2018-09-10T02:22:32.993Z,77.11
2018-09-10T02:25:01.978Z,76.87
2018-09-10T02:27:30.816Z,77.03
2018-09-10T02:29:59.682Z,76.98
2018-09-10T02:32:28.596Z,77.01
2018-09-10T02:34:57.584Z,76.92
2018-09-10T02:37:26.396Z,77.41
2018-09-10T02:39:55.391Z,77.10
2018-09-10T02:42:24.233Z,77.31
2018-09-10T02:44:53.217Z,77.32
2018-09-10T02:47:22.966Z,77.08
2018-09-10T02:49:51.892Z,77.61
2018-09-10T02:52:20.840Z,77.12
2018-09-10T02:54:49.790Z,78.02
2018-09-10T02:57:18.712Z,77.23
2018-09-10T02:59:47.530Z,77.67
2018-09-10T03:02:16.353Z,77.46
2018-09-10T03:04:46.037Z,77.64
2018-09-10T03:07:15.960Z,77.70
2018-09-10T03:09:45.005Z,78.12
2018-09-10T03:12:13.968Z,78.44
2018-09-10T03:14:42.901Z,78.60
2018-09-10T03:17:11.840Z,78.27
2018-09-10T03:19:40.697Z,78.39
2018-09-10T03:22:09.553Z,78.56
2018-09-10T03:24:38.480Z,77.86
2018-09-10T03:27:07.372Z,78.72
2018-09-10T03:29:36.247Z,78.60
2018-09-10T03:32:05.025Z,78.58
2018-09-10T03:34:33.870Z,78.73
2018-09-10T03:37:02.768Z,78.53
2018-09-10T03:39:31.672Z,78.88
2018-09-10T03:42:00.485Z,78.31
2018-09-10T03:44:29.327Z,78.25
2018-09-10T03:46:58.293Z,78.33
2018-09-10T03:49:27.144Z,78.18
2018-09-10T03:51:56.105Z,78.08
2018-09-10T03:54:25.136Z,78.13
2018-09-10T03:56:54.005Z,77.81
2018-09-10T03:59:22.966Z,77.58
2018-09-10T04:01:51.975Z,77.51
2018-09-10T04:04:20.922Z,77.73
2018-09-10T04:06:49.765Z,77.49
2018-09-10T04:09:18.677Z,77.64
2018-09-10T04:11:47.617Z,77.48
2018-09-10T04:14:16.479Z,77.39
2018-09-10T04:16:45.320Z,77.74
2018-09-10T04:19:14.350Z,77.78
2018-09-10T04:21:43.198Z,77.77
2018-09-10T04:24:12.204Z,77.86
2018-09-10T04:26:41.251Z,77.64
2018-09-10T04:29:10.100Z,78.10
2018-09-10T04:31:38.985Z,77.88
2018-09-10T04:34:07.887Z,78.21
2018-09-10T04:36:36.891Z,78.17
2018-09-10T04:39:07.681Z,78.43
2018-09-10T04:41:40.775Z,78.05
2018-09-10T04:44:09.690Z,78.50
2018-09-10T04:46:39.704Z,78.38
2018-09-10T04:49:09.732Z,77.97
2018-09-10T04:51:38.777Z,77.97
2018-09-10T04:54:07.649Z,78.22
2018-09-10T04:56:36.571Z,78.29
2018-09-10T04:59:05.491Z,78.35
2018-09-10T05:01:34.445Z,78.13
2018-09-10T05:04:03.449Z,78.36
2018-09-10T05:06:32.314Z,77.74
2018-09-10T05:09:01.249Z,78.27
2018-09-10T05:11:30.139Z,78.17
2018-09-10T05:13:59.132Z,77.95
2018-09-10T05:16:28.084Z,77.77
2018-09-10T05:18:57.096Z,78.15
2018-09-10T05:21:26.111Z,78.11
2018-09-10T05:23:55.057Z,78.27
2018-09-10T05:26:24.071Z,78.22
2018-09-10T05:28:53.124Z,78.19
2018-09-10T05:31:22.199Z,78.18
2018-09-10T05:33:51.068Z,78.18
2018-09-10T05:36:20.110Z,77.89
2018-09-10T05:38:49.078Z,77.86
2018-09-10T05:41:17.998Z,77.87
2018-09-10T05:43:46.934Z,77.70
2018-09-10T05:46:15.904Z,77.32
2018-09-10T05:48:44.931Z,77.27
2018-09-10T05:51:13.811Z,77.57
2018-09-10T05:53:42.752Z,77.55
2018-09-10T05:56:11.857Z,77.35
2018-09-10T05:58:40.751Z,77.14
2018-09-10T06:01:09.767Z,77.20
2018-09-10T06:03:38.800Z,77.51
2018-09-10T06:06:07.756Z,77.12
2018-09-10T06:08:36.874Z,76.89
2018-09-10T06:11:05.836Z,77.14
2018-09-10T06:13:34.774Z,76.58
2018-09-10T06:16:03.827Z,77.04
2018-09-10T06:18:32.824Z,76.03
2018-09-10T06:21:01.878Z,76.01
2018-09-10T06:23:30.797Z,75.55
2018-09-10T06:25:59.705Z,75.35
2018-09-10T06:28:28.647Z,75.12
2018-09-10T06:30:57.528Z,74.58
2018-09-10T06:33:26.505Z,74.23
2018-09-10T06:35:55.546Z,73.57
2018-09-10T06:38:24.493Z,73.05
2018-09-10T06:40:53.500Z,73.22
2018-09-10T06:43:22.537Z,72.97
2018-09-10T06:45:51.801Z,73.05
2018-09-10T06:48:28.510Z,72.92
2018-09-10T06:50:57.664Z,72.72
2018-09-10T06:53:26.677Z,72.27
2018-09-10T06:55:55.605Z,71.53
2018-09-10T06:58:24.672Z,70.97
2018-09-10T07:00:53.661Z,70.76
2018-09-10T07:03:22.659Z,71.22
2018-09-10T07:05:51.711Z,71.43
2018-09-10T07:08:28.311Z,71.22
2018-09-10T07:10:57.204Z,70.93
2018-09-10T07:13:26.659Z,71.44
2018-09-10T07:15:55.842Z,71.72
2018-09-10T07:18:25.753Z,70.84
2018-09-10T07:20:54.752Z,70.91
2018-09-10T07:23:23.768Z,69.07
2018-09-10T07:25:52.732Z,68.71
2018-09-10T07:28:22.813Z,69.04
2018-09-10T07:30:51.847Z,67.44
2018-09-10T07:33:20.839Z,66.67
2018-09-10T07:35:49.883Z,66.57
2018-09-10T07:38:18.913Z,67.51
2018-09-10T07:40:47.973Z,68.05
2018-09-10T07:43:17.261Z,68.30
2018-09-10T07:45:46.285Z,68.56
2018-09-10T07:48:15.207Z,68.52
2018-09-10T07:50:44.119Z,69.75
2018-09-10T07:53:13.255Z,69.23
2018-09-10T07:55:42.204Z,69.91
2018-09-10T07:58:11.253Z,70.14
2018-09-10T08:00:40.304Z,70.53
2018-09-10T08:03:09.329Z,70.23
2018-09-10T08:05:38.274Z,70.50
2018-09-10T08:08:08.313Z,70.86
2018-09-10T08:10:37.315Z,71.27
2018-09-10T08:13:06.277Z,71.47
2018-09-10T08:15:35.215Z,69.76
2018-09-10T08:18:04.101Z,69.34
2018-09-10T08:20:33.053Z,70.32
2018-09-10T08:23:02.002Z,70.60
2018-09-10T08:25:31.085Z,68.83
2018-09-10T08:28:00.129Z,68.69
2018-09-10T08:30:29.181Z,68.76
2018-09-10T08:32:58.116Z,68.85
2018-09-10T08:35:27.141Z,69.20
2018-09-10T08:37:56.113Z,67.21
2018-09-10T08:40:24.952Z,67.24
2018-09-10T08:42:53.872Z,66.04
2018-09-10T08:45:22.837Z,69.15
2018-09-10T08:47:51.792Z,68.00
2018-09-10T08:50:20.847Z,68.45
2018-09-10T08:52:49.773Z,68.74
2018-09-10T08:55:18.907Z,67.40
2018-09-10T08:57:47.695Z,66.29
2018-09-10T09:00:16.733Z,65.93
2018-09-10T09:02:45.758Z,65.64
2018-09-10T09:05:14.669Z,65.28
2018-09-10T09:07:43.579Z,65.62
2018-09-10T09:10:12.487Z,66.17
2018-09-10T09:12:41.520Z,66.44
2018-09-10T09:15:10.508Z,65.22
2018-09-10T09:17:39.471Z,65.26
2018-09-10T09:20:08.577Z,64.38
2018-09-10T09:22:37.563Z,63.72
2018-09-10T09:25:06.489Z,63.69
2018-09-10T09:27:35.566Z,62.50
2018-09-10T09:30:04.689Z,61.01
2018-09-10T09:32:33.752Z,59.40
2018-09-10T09:35:02.670Z,59.92
2018-09-10T09:37:36.852Z,61.16
2018-09-10T09:40:11.264Z,59.61
2018-09-10T09:42:45.307Z,59.97
2018-09-10T09:45:19.449Z,59.13
2018-09-10T09:47:48.537Z,59.60
2018-09-10T09:50:17.623Z,60.59
2018-09-10T09:52:46.724Z,62.29
2018-09-10T09:55:15.673Z,62.35
2018-09-10T09:57:44.705Z,59.64
2018-09-10T10:00:18.792Z,60.46
2018-09-10T10:02:52.994Z,60.46
2018-09-10T10:05:22.041Z,59.00
2018-09-10T10:07:51.140Z,59.15
2018-09-10T10:10:20.518Z,56.67
2018-09-10T10:12:49.489Z,57.80
2018-09-10T10:15:19.091Z,58.92
2018-09-10T10:17:48.081Z,59.55
2018-09-10T10:20:21.481Z,58.65
2018-09-10T10:22:50.474Z,59.19
2018-09-10T10:25:19.469Z,59.02
2018-09-10T10:27:48.331Z,57.83
2018-09-10T10:30:17.452Z,58.93
2018-09-10T10:32:46.549Z,57.67
2018-09-10T10:35:15.571Z,58.42
2018-09-10T10:37:44.555Z,58.60
2018-09-10T10:40:31.707Z,58.56
2018-09-10T10:43:00.672Z,58.53
2018-09-10T10:45:29.673Z,58.14
2018-09-10T10:47:58.678Z,58.38
2018-09-10T10:50:28.723Z,58.82
2018-09-10T10:52:57.744Z,57.63
2018-09-10T10:55:26.597Z,60.09
2018-09-10T10:57:55.596Z,59.42
2018-09-10T11:00:24.712Z,60.01
2018-09-10T11:02:53.694Z,58.97
2018-09-10T11:05:22.740Z,56.42
2018-09-10T11:07:51.622Z,56.54
2018-09-10T11:10:20.664Z,56.43
2018-09-10T11:12:49.551Z,54.72
2018-09-10T11:15:18.713Z,54.62
2018-09-10T11:17:47.683Z,53.60
2018-09-10T11:20:27.365Z,52.13
2018-09-10T11:22:56.269Z,50.33
2018-09-10T11:25:25.325Z,48.70
2018-09-10T11:27:54.264Z,51.91
2018-09-10T11:30:36.816Z,53.27
2018-09-10T11:33:05.936Z,53.65
2018-09-10T11:35:35.072Z,52.47
2018-09-10T11:38:04.068Z,54.01
2018-09-10T11:40:32.931Z,54.43
2018-09-10T11:43:01.837Z,52.98
2018-09-10T11:45:30.793Z,52.94
2018-09-10T11:47:59.777Z,53.07
2018-09-10T11:50:28.915Z,51.00
2018-09-10T11:52:57.922Z,53.19
2018-09-10T11:55:27.009Z,54.01
2018-09-10T11:57:55.937Z,52.80
2018-09-10T12:00:25.598Z,53.05
2018-09-10T12:02:55.096Z,53.81
2018-09-10T12:05:24.607Z,54.80
2018-09-10T12:07:54.155Z,53.90
2018-09-10T12:10:23.819Z,54.74
2018-09-10T12:12:53.510Z,56.51
2018-09-10T12:15:22.518Z,58.24
2018-09-10T12:17:51.445Z,57.77
2018-09-10T12:20:20.537Z,59.71
2018-09-10T12:22:49.590Z,58.79
2018-09-10T12:25:18.600Z,58.43
2018-09-10T12:27:47.485Z,57.90
2018-09-10T12:30:16.479Z,58.28
2018-09-10T12:32:45.362Z,57.24
2018-09-10T12:35:14.262Z,57.65
2018-09-10T12:37:43.159Z,56.59
2018-09-10T12:40:12.194Z,55.13
2018-09-10T12:42:41.210Z,53.75
2018-09-10T12:45:10.269Z,54.76
2018-09-10T12:47:39.250Z,54.31
2018-09-10T12:50:08.364Z,53.51
2018-09-10T12:52:37.393Z,53.56
2018-09-10T12:55:06.501Z,53.60
2018-09-10T12:57:35.572Z,51.96
2018-09-10T13:00:04.697Z,51.55
2018-09-10T13:02:33.740Z,50.69
2018-09-10T13:05:02.665Z,48.98
2018-09-10T13:07:31.517Z,48.08
2018-09-10T13:10:01.675Z,47.60
2018-09-10T13:12:30.575Z,47.91
2018-09-10T13:14:59.597Z,48.14
2018-09-10T13:17:28.538Z,45.78
2018-09-10T13:19:57.733Z,46.06
2018-09-10T13:22:26.709Z,45.76
2018-09-10T13:24:55.707Z,44.92
2018-09-10T13:27:24.779Z,44.71
2018-09-10T13:29:53.721Z,46.55
2018-09-10T13:32:22.712Z,46.40
2018-09-10T13:34:51.634Z,46.92
2018-09-10T13:37:20.594Z,48.32
2018-09-10T13:39:49.624Z,46.90
2018-09-10T13:42:18.640Z,46.81
2018-09-10T13:44:47.657Z,49.68
2018-09-10T13:47:16.649Z,49.80
2018-09-10T13:49:45.760Z,49.55
2018-09-10T13:52:14.751Z,49.93
2018-09-10T13:54:43.727Z,50.96
2018-09-10T13:57:12.752Z,50.49
2018-09-10T13:59:41.903Z,49.88
2018-09-10T14:02:10.839Z,51.04
2018-09-10T14:04:39.838Z,49.81
2018-09-10T14:07:08.800Z,50.93
2018-09-10T14:09:37.812Z,51.26
2018-09-10T14:12:06.752Z,52.48
2018-09-10T14:14:35.744Z,51.66
2018-09-10T14:17:04.685Z,52.99
2018-09-10T14:19:35.952Z,53.56
2018-09-10T14:22:04.877Z,53.47
2018-09-10T14:24:33.825Z,52.66
2018-09-10T14:27:02.988Z,53.18
2018-09-10T14:29:31.971Z,52.83
2018-09-10T14:32:00.965Z,52.47
2018-09-10T14:34:29.893Z,52.32
2018-09-10T14:36:58.956Z,53.06
2018-09-10T14:39:27.985Z,51.51
2018-09-10T14:41:56.938Z,52.78
2018-09-10T14:44:25.945Z,52.89
2018-09-10T14:46:54.985Z,53.58
2018-09-10T14:49:24.089Z,53.66
2018-09-10T14:51:53.000Z,53.07
2018-09-10T14:54:22.251Z,53.13
2018-09-10T14:56:51.260Z,53.06
2018-09-10T14:59:20.312Z,54.05
2018-09-10T15:01:49.127Z,52.68
2018-09-10T15:04:18.164Z,53.26
2018-09-10T15:06:47.044Z,53.42
2018-09-10T15:09:15.913Z,52.69
2018-09-10T15:11:44.940Z,52.60
2018-09-10T15:14:13.824Z,52.74
2018-09-10T15:16:42.761Z,53.97
2018-09-10T15:19:11.864Z,53.57
2018-09-10T15:21:40.893Z,53.47
2018-09-10T15:24:09.884Z,54.71
2018-09-10T15:26:38.903Z,55.36
2018-09-10T15:31:37.813Z,55.17
2018-09-10T15:34:06.805Z,55.46
2018-09-10T15:36:35.830Z,56.00
2018-09-10T15:39:06.078Z,55.03
2018-09-10T15:41:34.982Z,55.00
2018-09-10T15:44:03.897Z,54.72
2018-09-10T15:46:32.947Z,54.48
2018-09-10T15:49:02.988Z,55.50
2018-09-10T15:51:32.043Z,55.36
2018-09-10T15:54:00.934Z,55.34
2018-09-10T15:56:29.906Z,55.18
2018-09-10T15:58:58.875Z,55.09
2018-09-10T16:01:27.911Z,55.61
2018-09-10T16:03:57.043Z,56.20
2018-09-10T16:06:25.977Z,55.67
2018-09-10T16:08:54.951Z,55.95
2018-09-10T16:11:24.052Z,56.60
2018-09-10T16:13:53.013Z,56.83
2018-09-10T16:16:22.059Z,56.53
2018-09-10T16:18:51.042Z,57.25
2018-09-10T16:21:20.117Z,57.29
2018-09-10T16:23:48.953Z,57.86
2018-09-10T16:26:17.864Z,57.88
2018-09-10T16:28:46.750Z,57.83
2018-09-10T16:31:15.643Z,57.74
2018-09-10T16:33:44.609Z,58.12
2018-09-10T16:36:13.609Z,58.06
2018-09-10T16:38:42.451Z,58.56
2018-09-10T16:41:11.438Z,58.25
2018-09-10T16:43:40.289Z,59.08
2018-09-10T16:46:09.257Z,58.63
2018-09-10T16:48:38.302Z,59.43
2018-09-10T16:51:07.292Z,59.97
2018-09-10T16:53:36.270Z,60.19
2018-09-10T16:56:05.276Z,59.88
2018-09-10T16:58:34.314Z,59.78
2018-09-10T17:01:04.329Z,60.00
2018-09-10T17:03:33.250Z,60.21
2018-09-10T17:06:02.181Z,60.53
2018-09-10T17:08:31.038Z,60.19
2018-09-10T17:11:00.063Z,60.71
2018-09-10T17:13:28.939Z,60.54
2018-09-10T17:15:57.825Z,61.02
2018-09-10T17:18:26.911Z,60.93
2018-09-10T17:20:55.824Z,61.79
2018-09-10T17:23:24.783Z,62.02
2018-09-10T17:25:55.059Z,62.00
2018-09-10T17:28:24.177Z,62.84
2018-09-10T17:30:53.753Z,62.14
2018-09-10T17:33:22.623Z,63.04
2018-09-10T17:35:51.484Z,63.00
2018-09-10T17:38:20.484Z,62.99
2018-09-10T17:40:49.484Z,63.84
2018-09-10T17:43:18.327Z,64.29
2018-09-10T17:45:47.190Z,64.28
2018-09-10T17:48:16.172Z,64.56
2018-09-10T17:50:45.235Z,64.24
2018-09-10T17:53:14.145Z,64.41
2018-09-10T17:55:42.992Z,63.89
2018-09-10T17:58:11.989Z,64.45
2018-09-10T18:00:42.138Z,65.20
2018-09-10T18:03:12.467Z,65.38
2018-09-10T18:05:41.889Z,65.90
2018-09-10T18:08:10.771Z,65.13
2018-09-10T18:10:39.687Z,65.27
2018-09-10T18:13:08.640Z,65.87
2018-09-10T18:15:37.547Z,65.76
2018-09-10T18:18:06.497Z,65.90
2018-09-10T18:20:35.537Z,66.08
2018-09-10T18:23:04.332Z,67.04
2018-09-10T18:25:35.812Z,66.66
2018-09-10T18:28:04.774Z,67.29
2018-09-10T18:30:33.733Z,67.21
2018-09-10T18:33:02.750Z,67.93
2018-09-10T18:35:31.736Z,68.16
2018-09-10T18:38:00.697Z,68.76
2018-09-10T18:40:29.585Z,69.52
2018-09-10T18:42:58.649Z,69.90
2018-09-10T18:45:27.501Z,70.32
2018-09-10T18:47:56.517Z,70.61
2018-09-10T18:50:25.412Z,71.39
2018-09-10T18:52:55.284Z,71.83
2018-09-10T18:55:24.197Z,72.12
2018-09-10T18:57:53.605Z,72.36
2018-09-10T19:00:22.795Z,73.12
2018-09-10T19:02:51.743Z,73.74
2018-09-10T19:05:21.030Z,74.16
2018-09-10T19:07:50.360Z,74.57
2018-09-10T19:10:19.669Z,74.38
2018-09-10T19:12:49.010Z,75.06
2018-09-10T19:15:18.399Z,75.66
2018-09-10T19:17:47.806Z,75.72
2018-09-10T19:20:17.064Z,75.80
2018-09-10T19:22:49.746Z,76.17
2018-09-10T19:25:19.163Z,76.77
2018-09-10T19:27:48.089Z,77.04
2018-09-10T19:30:17.117Z,77.28
2018-09-10T19:32:46.144Z,77.27
2018-09-10T19:35:15.089Z,77.24
2018-09-10T19:37:44.191Z,77.96
2018-09-10T19:40:13.240Z,78.20
2018-09-10T19:42:42.327Z,78.09
2018-09-10T19:45:11.192Z,78.89
2018-09-10T19:47:40.211Z,78.89
2018-09-10T19:50:09.184Z,78.81
2018-09-10T19:52:38.065Z,78.97
2018-09-10T19:55:07.033Z,79.19
2018-09-10T19:57:35.945Z,79.29
2018-09-10T20:00:04.826Z,79.67
2018-09-10T20:02:33.831Z,79.91
2018-09-10T20:05:02.812Z,80.17
2018-09-10T20:07:31.756Z,80.36
2018-09-10T20:10:00.643Z,80.25
2018-09-10T20:12:29.581Z,79.90
2018-09-10T20:14:58.452Z,80.57
2018-09-10T20:17:27.287Z,80.89
2018-09-10T20:19:56.083Z,80.86
2018-09-10T20:22:25.078Z,80.93
2018-09-10T20:24:54.056Z,81.14
2018-09-10T20:27:22.977Z,81.33
2018-09-10T20:29:51.907Z,81.42
2018-09-10T20:32:21.016Z,81.63
2018-09-10T20:34:50.012Z,81.62
2018-09-10T20:37:19.024Z,81.44
2018-09-10T20:39:47.928Z,81.37
2018-09-10T20:42:16.821Z,81.28
2018-09-10T20:44:45.849Z,81.28
2018-09-10T20:47:14.831Z,81.87
2018-09-10T20:49:43.714Z,81.73
2018-09-10T20:52:12.839Z,81.84
2018-09-10T20:54:41.811Z,82.20
2018-09-10T20:57:10.769Z,81.88
2018-09-10T20:59:39.751Z,81.29
2018-09-10T21:02:08.594Z,80.26
2018-09-10T21:04:37.504Z,79.87
2018-09-10T21:07:06.441Z,80.00
2018-09-10T21:09:35.372Z,79.94
2018-09-10T21:12:04.456Z,80.34
2018-09-10T21:14:33.476Z,79.99
2018-09-10T21:17:02.593Z,79.60
2018-09-10T21:19:31.499Z,80.01
2018-09-10T21:22:00.489Z,79.42
2018-09-10T21:24:29.648Z,80.14
2018-09-10T21:26:58.611Z,79.87
2018-09-10T21:29:27.631Z,80.04
2018-09-10T21:31:56.465Z,80.32
2018-09-10T21:34:25.431Z,79.91
2018-09-10T21:36:54.295Z,80.13
2018-09-10T21:39:23.227Z,80.06
2018-09-10T21:41:52.163Z,80.11
2018-09-10T21:44:21.137Z,80.59
2018-09-10T21:46:50.245Z,80.47
2018-09-10T21:49:19.074Z,80.33
2018-09-10T21:51:47.997Z,80.36
2018-09-10T21:54:16.911Z,80.52
2018-09-10T21:56:45.812Z,80.50
2018-09-10T21:59:14.721Z,80.30
2018-09-10T22:01:43.516Z,81.18
2018-09-10T22:04:12.599Z,81.34
2018-09-10T22:06:41.522Z,81.35
2018-09-10T22:09:10.462Z,81.24
2018-09-10T22:11:46.277Z,81.16
2018-09-10T22:14:15.293Z,81.19
2018-09-10T22:16:44.152Z,81.18
2018-09-10T22:19:13.208Z,81.71
2018-09-10T22:21:42.548Z,82.03
2018-09-10T22:24:11.437Z,81.98
2018-09-10T22:26:40.399Z,82.31
2018-09-10T22:29:09.265Z,82.90
2018-09-10T22:31:38.185Z,83.76
2018-09-10T22:34:07.133Z,83.01
2018-09-10T22:36:36.107Z,82.88
2018-09-10T22:39:07.464Z,83.42
2018-09-10T22:41:36.338Z,83.46
2018-09-10T22:44:06.228Z,83.52
2018-09-10T22:46:35.815Z,83.99
2018-09-10T22:49:05.349Z,84.03
2018-09-10T22:51:34.285Z,84.33
2018-09-10T22:54:03.281Z,84.22
2018-09-10T22:56:32.213Z,84.24
2018-09-10T22:59:01.276Z,84.87
2018-09-10T23:01:30.163Z,84.62
2018-09-10T23:03:59.108Z,84.73
2018-09-10T23:06:27.901Z,84.60
2018-09-10T23:08:56.841Z,84.72
2018-09-10T23:11:25.655Z,84.84
2018-09-10T23:13:54.528Z,84.68
2018-09-10T23:16:23.566Z,85.09
2018-09-10T23:18:52.492Z,84.97
2018-09-10T23:21:21.488Z,84.83
2018-09-10T23:23:50.511Z,84.98
2018-09-10T23:26:19.316Z,84.92
2018-09-10T23:28:48.288Z,85.32
2018-09-10T23:31:17.097Z,85.40
2018-09-10T23:33:46.032Z,85.36
2018-09-10T23:36:14.965Z,85.27
2018-09-10T23:38:43.928Z,85.83
2018-09-10T23:41:12.744Z,85.83
2018-09-10T23:43:41.741Z,85.48
2018-09-10T23:46:10.532Z,85.67
2018-09-10T23:48:39.527Z,85.50
2018-09-10T23:51:08.437Z,85.32
2018-09-10T23:53:37.361Z,85.24
2018-09-10T23:56:06.261Z,84.86
2018-09-10T23:58:35.217Z,84.35
